createdAt,value
2018-11-04T00:01:00.210Z,101960.02
2018-11-04T00:04:24.939Z,101960.44
2018-11-04T00:07:50.882Z,101956.02
2018-11-04T00:11:15.543Z,101948.35
2018-11-04T00:14:40.351Z,101948.57
2018-11-04T00:18:05.061Z,101934.18
2018-11-04T00:21:29.758Z,101934.09
2018-11-04T00:24:54.461Z,101926.66
2018-11-04T00:28:19.278Z,101926.53
2018-11-04T00:31:43.996Z,101921.28
2018-11-04T00:35:09.110Z,101915.41
2018-11-04T00:38:33.826Z,101911.48
2018-11-04T00:41:58.603Z,101906.64
2018-11-04T00:45:23.452Z,101907.39
2018-11-04T00:48:48.151Z,101908.73
2018-11-04T00:52:12.928Z,101903.23
2018-11-04T00:55:37.764Z,101903.50
2018-11-04T00:59:02.524Z,101903.19
2018-11-04T01:02:27.312Z,101895.13
2018-11-04T01:05:52.130Z,101890.70
2018-11-04T01:09:17.109Z,101883.25
2018-11-04T01:12:42.434Z,101890.05
2018-11-04T01:16:07.797Z,101883.38
2018-11-04T01:19:32.486Z,101881.18
2018-11-04T01:22:57.219Z,101873.44
2018-11-04T01:26:21.949Z,101872.59
2018-11-04T01:29:46.722Z,101867.81
2018-11-04T01:33:11.474Z,101861.52
2018-11-04T01:36:36.202Z,101854.23
2018-11-04T01:40:00.911Z,101846.73
2018-11-04T01:43:25.658Z,101843.77
2018-11-04T01:46:50.411Z,101842.31
2018-11-04T01:50:15.515Z,101838.02
2018-11-04T01:53:40.291Z,101838.67
2018-11-04T01:57:05.079Z,101828.97
2018-11-04T02:00:29.954Z,101814.38
2018-11-04T02:03:54.646Z,101812.66
2018-11-04T02:07:19.387Z,101805.16
2018-11-04T02:10:44.108Z,101807.98
2018-11-04T02:14:08.867Z,101804.38
2018-11-04T02:17:33.673Z,101791.95
2018-11-04T02:20:58.419Z,101791.04
2018-11-04T02:24:23.138Z,101788.88
2018-11-04T02:27:47.854Z,101781.03
2018-11-04T02:31:12.669Z,101772.16
2018-11-04T02:34:37.493Z,101764.99
2018-11-04T02:38:02.320Z,101757.00
2018-11-04T02:41:27.254Z,101755.45
2018-11-04T02:44:52.019Z,101756.66
2018-11-04T02:48:16.749Z,101754.17
2018-11-04T02:51:41.496Z,101750.38
2018-11-04T02:55:06.797Z,101752.13
2018-11-04T02:58:31.532Z,101746.80
2018-11-04T03:01:56.340Z,101747.91
2018-11-04T03:05:21.101Z,101741.78
2018-11-04T03:08:45.913Z,101744.33
2018-11-04T03:12:10.673Z,101745.91
2018-11-04T03:15:35.528Z,101735.92
2018-11-04T03:19:00.321Z,101733.34
2018-11-04T03:22:25.083Z,101721.84
2018-11-04T03:25:49.838Z,101721.52
2018-11-04T03:29:14.560Z,101717.77
2018-11-04T03:32:39.335Z,101710.88
2018-11-04T03:36:04.075Z,101713.22
2018-11-04T03:39:28.776Z,101710.14
2018-11-04T03:42:53.462Z,101703.09
2018-11-04T03:46:18.190Z,101709.72
2018-11-04T03:49:42.949Z,101713.66
2018-11-04T03:53:08.571Z,101718.20
2018-11-04T03:56:33.325Z,101717.61
2018-11-04T03:59:58.064Z,101720.88
2018-11-04T04:03:22.825Z,101715.92
2018-11-04T04:06:47.581Z,101706.96
2018-11-04T04:10:12.276Z,101705.91
2018-11-04T04:13:36.953Z,101703.84
2018-11-04T04:17:01.725Z,101698.14
2018-11-04T04:20:26.393Z,101700.33
2018-11-04T04:23:51.130Z,101701.16
2018-11-04T04:27:15.859Z,101700.83
2018-11-04T04:30:40.577Z,101703.67
2018-11-04T04:34:05.359Z,101701.64
2018-11-04T04:37:30.086Z,101700.34
2018-11-04T04:40:54.829Z,101695.43
2018-11-04T04:44:19.561Z,101690.47
2018-11-04T04:47:44.293Z,101684.42
2018-11-04T04:51:09.176Z,101689.62
2018-11-04T04:54:33.886Z,101687.00
2018-11-04T04:57:58.666Z,101684.04
2018-11-04T05:01:23.575Z,101691.39
2018-11-04T05:04:48.275Z,101687.80
2018-11-04T05:08:13.310Z,101684.23
2018-11-04T05:11:38.025Z,101684.85
2018-11-04T05:15:02.731Z,101678.78
2018-11-04T05:18:27.429Z,101676.26
2018-11-04T05:21:52.228Z,101669.09
2018-11-04T05:25:16.987Z,101660.69
2018-11-04T05:28:41.691Z,101657.83
2018-11-04T05:32:08.639Z,101652.92
2018-11-04T05:35:33.551Z,101649.99
2018-11-04T05:38:58.388Z,101651.00
2018-11-04T05:42:23.116Z,101653.20
2018-11-04T05:45:47.849Z,101649.14
2018-11-04T05:49:14.361Z,101652.44
2018-11-04T05:52:39.088Z,101643.31
2018-11-04T05:56:06.644Z,101647.91
2018-11-04T05:59:31.543Z,101646.77
2018-11-04T06:02:56.260Z,101640.06
2018-11-04T06:06:21.014Z,101641.70
2018-11-04T06:09:45.746Z,101639.78
2018-11-04T06:16:44.948Z,101638.38
2018-11-04T06:20:11.365Z,101635.17
2018-11-04T06:23:39.939Z,101632.25
2018-11-04T06:27:04.654Z,101635.25
2018-11-04T06:30:29.335Z,101635.14
2018-11-04T06:33:54.077Z,101629.07
2018-11-04T06:37:18.884Z,101632.09
2018-11-04T06:40:43.737Z,101630.91
2018-11-04T06:44:09.383Z,101634.48
2018-11-04T06:47:34.204Z,101641.17
2018-11-04T06:50:59.009Z,101628.58
2018-11-04T06:54:23.730Z,101631.55
2018-11-04T06:57:48.581Z,101632.62
2018-11-04T07:01:13.388Z,101630.36
2018-11-04T07:04:38.629Z,101634.23
2018-11-04T07:08:04.411Z,101629.06
2018-11-04T07:11:29.267Z,101627.59
2018-11-04T07:14:54.639Z,101633.21
2018-11-04T07:18:20.158Z,101625.23
2018-11-04T07:21:45.131Z,101630.74
2018-11-04T07:25:10.098Z,101636.53
2018-11-04T07:28:34.973Z,101634.91
2018-11-04T07:31:59.884Z,101639.27
2018-11-04T07:35:24.790Z,101635.65
2018-11-04T07:38:49.619Z,101633.19
2018-11-04T07:42:14.488Z,101636.95
2018-11-04T07:45:39.434Z,101627.09
2018-11-04T07:49:05.409Z,101620.91
2018-11-04T07:52:30.977Z,101621.58
2018-11-04T07:55:55.825Z,101610.92
2018-11-04T07:59:21.327Z,101604.39
2018-11-04T08:02:46.242Z,101604.62
2018-11-04T08:06:11.441Z,101599.26
2018-11-04T08:09:36.242Z,101595.16
2018-11-04T08:13:01.441Z,101589.45
2018-11-04T08:16:26.142Z,101582.30
2018-11-04T08:19:50.893Z,101577.80
2018-11-04T08:23:15.749Z,101581.52
2018-11-04T08:26:40.604Z,101574.84
2018-11-04T08:30:06.908Z,101572.60
2018-11-04T08:33:31.723Z,101573.23
2018-11-04T08:36:56.479Z,101568.39
2018-11-04T08:40:21.354Z,101570.23
2018-11-04T08:43:46.327Z,101573.27
2018-11-04T08:47:11.100Z,101573.83
2018-11-04T08:50:35.822Z,101576.69
2018-11-04T08:54:00.610Z,101573.04
2018-11-04T08:57:25.407Z,101569.09
2018-11-04T09:00:50.166Z,101567.34
2018-11-04T09:04:15.151Z,101567.91
2018-11-04T09:07:40.220Z,101569.43
2018-11-04T09:11:06.339Z,101568.20
2018-11-04T09:14:31.236Z,101562.41
2018-11-04T09:17:56.107Z,101558.91
2018-11-04T09:21:20.918Z,101561.49
2018-11-04T09:24:45.773Z,101557.81
2018-11-04T09:28:10.563Z,101558.41
2018-11-04T09:31:35.416Z,101553.32
2018-11-04T09:35:00.234Z,101545.73
2018-11-04T09:38:24.999Z,101533.30
2018-11-04T09:41:49.699Z,101536.77
2018-11-04T09:45:14.472Z,101537.75
2018-11-04T09:48:39.264Z,101548.50
2018-11-04T09:52:04.044Z,101541.89
2018-11-04T09:55:28.881Z,101543.68
2018-11-04T09:58:53.631Z,101541.09
2018-11-04T10:02:18.534Z,101534.08
2018-11-04T10:05:43.458Z,101537.28
2018-11-04T10:09:10.308Z,101539.50
2018-11-04T10:12:35.091Z,101533.62
2018-11-04T10:15:59.815Z,101534.76
2018-11-04T10:19:24.783Z,101536.03
2018-11-04T10:22:49.361Z,101528.65
2018-11-04T10:26:14.131Z,101522.15
2018-11-04T10:29:38.876Z,101515.78
2018-11-04T10:33:03.676Z,101513.47
2018-11-04T10:36:28.420Z,101508.04
2018-11-04T10:39:53.245Z,101502.22
2018-11-04T10:43:18.022Z,101497.84
2018-11-04T10:46:42.832Z,101494.83
2018-11-04T10:50:11.401Z,101493.72
2018-11-04T10:53:36.265Z,101500.63
2018-11-04T10:57:01.169Z,101494.50
2018-11-04T11:00:31.198Z,101485.99
2018-11-04T11:03:56.192Z,101475.81
2018-11-04T11:07:21.378Z,101471.84
2018-11-04T11:10:52.525Z,101461.18
2018-11-04T11:14:17.681Z,101449.92
2018-11-04T11:17:42.466Z,101445.78
2018-11-04T11:21:07.724Z,101434.87
2018-11-04T11:24:33.215Z,101433.31
2018-11-04T11:27:57.912Z,101423.52
2018-11-04T11:31:22.803Z,101418.18
2018-11-04T11:34:47.702Z,101408.80
2018-11-04T11:38:12.756Z,101409.29
2018-11-04T11:41:37.588Z,101413.30
2018-11-04T11:45:02.483Z,101399.22
2018-11-04T11:48:27.200Z,101399.88
2018-11-04T11:51:51.967Z,101386.19
2018-11-04T11:55:16.706Z,101387.11
2018-11-04T11:58:41.694Z,101379.83
2018-11-04T12:02:06.659Z,101374.81
2018-11-04T12:05:31.375Z,101370.67
2018-11-04T12:08:56.254Z,101371.75
2018-11-04T12:12:22.872Z,101371.14
2018-11-04T12:15:48.888Z,101360.91
2018-11-04T12:19:14.612Z,101355.71
2018-11-04T12:22:39.545Z,101352.34
2018-11-04T12:26:04.620Z,101354.58
2018-11-04T12:29:29.517Z,101346.02
2018-11-04T12:32:54.411Z,101345.15
2018-11-04T12:36:19.247Z,101336.02
2018-11-04T12:39:44.240Z,101336.31
2018-11-04T12:43:09.035Z,101330.84
2018-11-04T12:46:33.804Z,101326.19
2018-11-04T12:49:59.161Z,101318.56
2018-11-04T12:53:24.256Z,101315.05
2018-11-04T12:56:49.062Z,101310.96
2018-11-04T13:00:15.037Z,101305.57
2018-11-04T13:03:39.793Z,101305.16
2018-11-04T13:07:04.589Z,101303.11
2018-11-04T13:10:29.367Z,101299.34
2018-11-04T13:13:54.389Z,101294.30
2018-11-04T13:17:19.305Z,101294.93
2018-11-04T13:20:44.187Z,101277.84
2018-11-04T13:24:09.036Z,101285.56
2018-11-04T13:27:33.891Z,101268.52
2018-11-04T13:30:58.865Z,101268.32
2018-11-04T13:34:23.699Z,101264.30
2018-11-04T13:37:48.572Z,101260.28
2018-11-04T13:41:13.312Z,101249.69
2018-11-04T13:44:38.149Z,101240.28
2018-11-04T13:48:02.893Z,101242.60
2018-11-04T13:51:27.614Z,101236.38
2018-11-04T13:54:52.378Z,101231.81
2018-11-04T13:58:17.138Z,101231.50
2018-11-04T14:01:41.995Z,101212.31
2018-11-04T14:05:08.237Z,101215.36
2018-11-04T14:08:33.803Z,101212.09
2018-11-04T14:11:59.531Z,101215.98
2018-11-04T14:15:24.341Z,101208.92
2018-11-04T14:18:49.092Z,101196.81
2018-11-04T14:22:13.980Z,101200.36
2018-11-04T14:25:38.840Z,101205.88
2018-11-04T14:29:03.623Z,101203.33
2018-11-04T14:32:28.850Z,101196.51
2018-11-04T14:35:53.595Z,101183.30
2018-11-04T14:39:20.272Z,101186.15
2018-11-04T14:42:46.184Z,101189.30
2018-11-04T14:46:15.223Z,101181.22
2018-11-04T14:49:40.063Z,101186.80
2018-11-04T14:53:05.140Z,101193.89
2018-11-04T14:56:30.521Z,101188.38
2018-11-04T14:59:55.403Z,101194.66
2018-11-04T15:03:20.210Z,101206.83
2018-11-04T15:06:45.229Z,101203.80
2018-11-04T15:10:12.813Z,101201.64
2018-11-04T15:13:37.624Z,101199.43
2018-11-04T15:17:02.363Z,101198.09
2018-11-04T15:20:27.245Z,101201.87
2018-11-04T15:23:52.045Z,101196.95
2018-11-04T15:27:16.876Z,101196.21
2018-11-04T15:30:41.637Z,101199.11
2018-11-04T15:34:06.767Z,101197.18
2018-11-04T15:37:31.482Z,101194.55
2018-11-04T15:40:56.265Z,101195.33
2018-11-04T15:44:21.549Z,101185.67
2018-11-04T15:47:46.318Z,101178.25
2018-11-04T15:51:11.101Z,101173.73
2018-11-04T15:54:36.010Z,101170.61
2018-11-04T15:58:00.891Z,101164.44
2018-11-04T16:01:25.826Z,101160.50
2018-11-04T16:04:50.540Z,101158.86
2018-11-04T16:08:18.353Z,101160.55
2018-11-04T16:11:43.256Z,101163.70
2018-11-04T16:15:11.062Z,101163.47
2018-11-04T16:18:35.864Z,101165.52
2018-11-04T16:22:01.047Z,101161.58
2018-11-04T16:25:25.904Z,101166.05
2018-11-04T16:28:50.604Z,101170.77
2018-11-04T16:32:15.585Z,101175.42
2018-11-04T16:35:40.326Z,101170.81
2018-11-04T16:39:06.414Z,101162.43
2018-11-04T16:42:31.173Z,101163.33
2018-11-04T16:45:55.921Z,101163.13
2018-11-04T16:49:20.645Z,101161.89
2018-11-04T16:52:45.918Z,101166.45
2018-11-04T16:56:10.855Z,101167.75
2018-11-04T16:59:35.471Z,101167.97
2018-11-04T17:03:00.400Z,101166.08
2018-11-04T17:06:25.229Z,101160.17
2018-11-04T17:09:50.080Z,101165.84
2018-11-04T17:13:14.795Z,101164.50
2018-11-04T17:16:39.573Z,101172.15
2018-11-04T17:20:04.881Z,101167.72
2018-11-04T17:23:29.744Z,101168.08
2018-11-04T17:26:54.518Z,101159.33
2018-11-04T17:30:19.790Z,101157.59
2018-11-04T17:33:44.564Z,101151.95
2018-11-04T17:37:10.445Z,101149.00
2018-11-04T17:40:35.133Z,101147.95
2018-11-04T17:43:59.888Z,101147.14
2018-11-04T17:47:24.594Z,101138.44
2018-11-04T17:50:51.225Z,101143.71
2018-11-04T17:54:16.673Z,101142.54
2018-11-04T17:57:41.671Z,101140.62
2018-11-04T18:01:06.466Z,101154.20
2018-11-04T18:04:31.164Z,101156.30
2018-11-04T18:07:56.024Z,101138.15
2018-11-04T18:11:20.802Z,101135.70
2018-11-04T18:14:45.582Z,101142.09
2018-11-04T18:18:10.314Z,101132.06
2018-11-04T18:21:35.371Z,101136.95
2018-11-04T18:25:00.186Z,101142.20
2018-11-04T18:28:24.904Z,101130.41
2018-11-04T18:31:49.764Z,101129.89
2018-11-04T18:35:14.560Z,101133.69
2018-11-04T18:38:39.207Z,101141.63
2018-11-04T18:42:03.951Z,101131.92
2018-11-04T18:45:28.610Z,101138.05
2018-11-04T18:48:53.364Z,101143.42
2018-11-04T18:52:18.086Z,101140.14
2018-11-04T18:55:42.741Z,101131.17
2018-11-04T18:59:07.738Z,101126.26
2018-11-04T19:02:32.455Z,101126.50
2018-11-04T19:05:57.171Z,101116.97
2018-11-04T19:09:21.934Z,101114.92
2018-11-04T19:12:46.737Z,101104.83
2018-11-04T19:16:11.484Z,101097.70
2018-11-04T19:19:36.181Z,101099.55
2018-11-04T19:23:00.902Z,101107.49
2018-11-04T19:26:25.618Z,101097.06
2018-11-04T19:29:50.360Z,101105.82
2018-11-04T19:33:15.707Z,101112.25
2018-11-04T19:36:40.571Z,101101.53
2018-11-04T19:40:07.918Z,101099.48
2018-11-04T19:43:32.958Z,101099.27
2018-11-04T19:46:57.886Z,101099.38
2018-11-04T19:50:23.410Z,101108.59
2018-11-04T19:53:48.991Z,101105.45
2018-11-04T19:57:15.338Z,101099.60
2018-11-04T20:00:40.446Z,101103.29
2018-11-04T20:04:07.385Z,101093.40
2018-11-04T20:07:33.166Z,101092.61
2018-11-04T20:10:57.955Z,101095.03
2018-11-04T20:14:24.076Z,101100.06
2018-11-04T20:17:50.612Z,101099.44
2018-11-04T20:21:15.940Z,101092.28
2018-11-04T20:24:46.031Z,101081.42
2018-11-04T20:28:19.639Z,101085.19
2018-11-04T20:31:49.451Z,101082.94
2018-11-04T20:35:15.759Z,101091.13
2018-11-04T20:38:46.248Z,101089.01
2018-11-04T20:42:12.482Z,101097.68
2018-11-04T20:45:38.089Z,101093.89
2018-11-04T20:49:08.004Z,101103.20
2018-11-04T20:52:33.600Z,101099.62
2018-11-04T20:56:04.643Z,101094.77
2018-11-04T20:59:29.437Z,101089.86
2018-11-04T21:02:54.495Z,101089.38
2018-11-04T21:06:21.119Z,101087.38
2018-11-04T21:09:47.671Z,101080.17
2018-11-04T21:13:13.324Z,101078.78
2018-11-04T21:16:39.518Z,101077.34
2018-11-04T21:20:05.910Z,101077.09
2018-11-04T21:23:31.069Z,101072.50
2018-11-04T21:26:56.246Z,101082.78
2018-11-04T21:30:20.991Z,101076.24
2018-11-04T21:33:45.757Z,101073.20
2018-11-04T21:37:10.556Z,101067.11
2018-11-04T21:40:35.375Z,101058.66
2018-11-04T21:44:00.294Z,101053.90
2018-11-04T21:47:24.917Z,101056.44
2018-11-04T21:50:49.792Z,101047.90
2018-11-04T21:54:14.529Z,101046.60
2018-11-04T21:57:39.740Z,101042.86
2018-11-04T22:01:04.552Z,101036.94
2018-11-04T22:04:29.381Z,101023.92
2018-11-04T22:07:54.173Z,101021.64
2018-11-04T22:11:18.947Z,101011.91
2018-11-04T22:14:43.694Z,101019.53
2018-11-04T22:18:08.455Z,101022.30
2018-11-04T22:21:33.176Z,101017.67
2018-11-04T22:24:57.970Z,101017.49
2018-11-04T22:28:22.718Z,101006.93
2018-11-04T22:31:47.586Z,100999.28
2018-11-04T22:35:12.813Z,100989.19
2018-11-04T22:38:37.635Z,100983.61
2018-11-04T22:42:02.506Z,100978.10
2018-11-04T22:45:27.290Z,100976.42
2018-11-04T22:48:52.054Z,100983.00
2018-11-04T22:52:16.924Z,100983.05
2018-11-04T22:55:41.828Z,100984.02
2018-11-04T22:59:07.200Z,100979.97
2018-11-04T23:02:32.015Z,100982.16
2018-11-04T23:05:57.057Z,100990.97
2018-11-04T23:09:21.890Z,100998.21
2018-11-04T23:12:46.651Z,100996.06
2018-11-04T23:16:11.486Z,100996.59
2018-11-04T23:19:36.252Z,100974.54
2018-11-04T23:23:01.027Z,100975.55
2018-11-04T23:26:25.878Z,100970.33
2018-11-04T23:29:50.782Z,100975.15
2018-11-04T23:33:15.552Z,100971.41
2018-11-04T23:36:40.571Z,100969.16
2018-11-04T23:40:05.951Z,100967.06
2018-11-04T23:43:30.837Z,100965.23
2018-11-04T23:46:55.643Z,100964.66
2018-11-04T23:50:20.404Z,100964.74
2018-11-04T23:53:45.136Z,100956.53
2018-11-04T23:57:10.116Z,100956.91
